Time;durP1;ratioP1;P1;durP2;ratioP2;P2;SDS_P1;SDS_P2;PMS_P1;PMS_P2;Temp;Humidity;BMP_temperature;BMP_pressure;BME280_temperature;BME280_humidity;BME280_pressure;Samples;Min_cycle;Max_cycle;Signal;HPM_P1;HPM_P2
2023/07/21 00:00:15;;;;;;;7.25;3.63;;;;;;;19.15;68.82;99508.75;5062283;28;20033;-72
2023/07/21 00:02:41;;;;;;;5.30;3.53;;;;;;;19.06;68.56;99508.75;5062970;28;20685;-72
2023/07/21 00:05:07;;;;;;;4.93;2.78;;;;;;;18.73;69.71;99510.91;5066045;28;20029;-73
2023/07/21 00:07:32;;;;;;;7.10;3.22;;;;;;;18.98;69.28;99507.63;5066005;28;20043;-72
2023/07/21 00:09:59;;;;;;;5.32;3.40;;;;;;;18.84;69.85;99511.38;5065699;28;20042;-72
2023/07/21 00:12:24;;;;;;;6.93;3.60;;;;;;;18.87;69.80;99510.75;5066393;28;20132;-72
2023/07/21 00:14:50;;;;;;;7.35;3.75;;;;;;;18.89;69.31;99502.13;5066104;28;20119;-73
2023/07/21 00:17:15;;;;;;;5.20;3.40;;;;;;;18.97;69.38;99501.31;5065902;28;20029;-72
2023/07/21 00:19:41;;;;;;;6.30;3.60;;;;;;;19.02;69.44;99494.78;5066946;28;20028;-73
2023/07/21 00:22:07;;;;;;;6.40;4.10;;;;;;;18.79;69.73;99493.03;5068256;28;20760;-79
2023/07/21 00:24:32;;;;;;;4.70;2.72;;;;;;;18.61;70.47;99503.28;5068729;28;20044;-79
2023/07/21 00:27:01;;;;;;;5.95;3.47;;;;;;;18.48;71.67;99494.06;5068973;28;20032;-79
2023/07/21 00:29:29;;;;;;;8.52;4.45;;;;;;;18.67;70.84;99493.69;5068504;28;20039;-79
2023/07/21 00:31:54;;;;;;;5.75;3.65;;;;;;;18.69;70.32;99493.41;5068706;28;20044;-79
2023/07/21 00:34:24;;;;;;;4.00;2.63;;;;;;;18.60;70.51;99487.06;5068385;28;20043;-78
2023/07/21 00:36:49;;;;;;;6.63;4.13;;;;;;;18.70;69.75;99488.66;5068530;28;20750;-80
2023/07/21 00:39:15;;;;;;;7.43;3.58;;;;;;;18.71;69.63;99479.25;5068783;28;20038;-78
2023/07/21 00:41:40;;;;;;;6.10;4.00;;;;;;;18.60;70.06;99471.31;5067966;28;20090;-79
2023/07/21 00:44:08;;;;;;;7.13;3.45;;;;;;;18.54;71.30;99472.63;5068010;28;20277;-79
2023/07/21 00:46:34;;;;;;;6.60;3.80;;;;;;;18.63;70.96;99467.09;5068315;28;20478;-79
2023/07/21 00:49:00;;;;;;;8.43;5.22;;;;;;;18.66;70.32;99467.25;5069075;28;20509;-78
2023/07/21 00:51:26;;;;;;;8.18;4.70;;;;;;;18.48;71.32;99466.44;5069695;28;20055;-78
2023/07/21 00:53:51;;;;;;;7.95;4.70;;;;;;;18.51;71.84;99465.78;5068801;28;20036;-78
2023/07/21 00:56:17;;;;;;;9.90;5.35;;;;;;;18.54;72.21;99459.63;5069008;28;20036;-78
2023/07/21 00:58:42;;;;;;;6.93;4.15;;;;;;;18.55;71.57;99463.19;5069300;28;20039;-79
2023/07/21 01:01:08;;;;;;;6.22;3.90;;;;;;;18.54;71.23;99462.41;5070228;28;20099;-79
2023/07/21 01:03:35;;;;;;;7.95;4.35;;;;;;;18.65;70.26;99459.28;5069480;28;20036;-79
2023/07/21 01:06:02;;;;;;;8.18;4.60;;;;;;;18.57;70.16;99454.59;5068819;28;20083;-79
2023/07/21 01:08:28;;;;;;;6.78;4.25;;;;;;;18.55;70.26;99457.66;5068762;28;20032;-78
2023/07/21 01:10:55;;;;;;;7.63;3.63;;;;;;;18.58;69.58;99465.31;5069900;28;20043;-78
2023/07/21 01:13:21;;;;;;;5.57;3.65;;;;;;;18.57;69.68;99462.88;5069039;28;20074;-79
2023/07/21 01:15:53;;;;;;;7.53;3.88;;;;;;;18.37;69.91;99452.16;5067254;28;20039;-78
2023/07/21 01:18:20;;;;;;;4.85;2.95;;;;;;;18.14;70.94;99451.50;5068862;28;20036;-79
2023/07/21 01:20:47;;;;;;;6.68;2.83;;;;;;;18.14;70.72;99445.97;5068970;28;20036;-80
2023/07/21 01:23:24;;;;;;;4.63;2.67;;;;;;;18.20;70.19;99453.00;5067743;28;20037;-81
2023/07/21 01:25:52;;;;;;;6.18;2.90;;;;;;;18.24;70.09;99453.97;5068968;28;20066;-78
2023/07/21 01:28:18;;;;;;;3.80;2.28;;;;;;;18.24;69.84;99451.22;5068362;28;20035;-80
2023/07/21 01:30:48;;;;;;;4.43;2.70;;;;;;;18.34;69.08;99449.25;5067787;28;20059;-79
2023/07/21 01:33:17;;;;;;;5.45;3.08;;;;;;;18.27;69.25;99438.69;5068308;28;20039;-79
2023/07/21 01:35:43;;;;;;;5.28;3.22;;;;;;;18.16;69.90;99439.00;5068139;28;20041;-79
2023/07/21 01:38:10;;;;;;;5.40;2.20;;;;;;;18.06;70.00;99439.34;5068434;28;20054;-78
2023/07/21 01:40:36;;;;;;;3.47;2.10;;;;;;;18.19;69.97;99424.59;5068332;28;20107;-79
2023/07/21 01:43:01;;;;;;;6.22;2.47;;;;;;;18.22;69.90;99425.06;5068184;28;20119;-77
2023/07/21 01:45:27;;;;;;;5.07;2.20;;;;;;;18.30;69.44;99422.31;5066909;28;20028;-79
2023/07/21 01:47:55;;;;;;;5.13;2.65;;;;;;;18.39;68.74;99421.47;5069008;28;20540;-78
2023/07/21 01:50:21;;;;;;;5.50;2.90;;;;;;;18.40;68.30;99425.88;5067106;28;20037;-79
2023/07/21 01:52:47;;;;;;;6.50;2.97;;;;;;;18.39;68.34;99418.72;5068284;28;20086;-78
2023/07/21 01:55:24;;;;;;;7.25;3.63;;;;;;;18.25;69.20;99416.13;5067554;28;20032;-80
2023/07/21 01:57:57;;;;;;;8.93;3.20;;;;;;;18.00;69.60;99413.03;5067715;28;20055;-79
2023/07/21 02:00:32;;;;;;;4.95;2.92;;;;;;;18.02;70.15;99421.81;5067786;28;20032;-78
2023/07/21 02:02:58;;;;;;;4.65;3.25;;;;;;;18.13;70.30;99423.09;5067917;28;20110;-79
2023/07/21 02:05:26;;;;;;;5.18;2.58;;;;;;;18.14;69.96;99421.16;5067878;28;20075;-78
2023/07/21 02:07:52;;;;;;;5.10;2.70;;;;;;;18.24;69.76;99417.28;5067223;28;20074;-81
2023/07/21 02:10:18;;;;;;;5.18;3.15;;;;;;;18.27;69.50;99411.91;5067338;28;20056;-78
2023/07/21 02:12:43;;;;;;;5.25;3.13;;;;;;;18.29;69.48;99415.16;5067715;28;20155;-80
2023/07/21 02:15:09;;;;;;;5.63;2.88;;;;;;;18.39;69.03;99402.16;5066888;28;20025;-78
2023/07/21 02:17:35;;;;;;;7.45;5.25;;;;;;;18.47;68.49;99401.34;5068041;28;20489;-79
2023/07/21 02:20:07;;;;;;;6.53;3.83;;;;;;;18.48;68.35;99408.50;5067653;28;20039;-79
2023/07/21 02:22:32;;;;;;;5.95;4.00;;;;;;;18.45;68.50;99405.59;5067132;28;20028;-81
2023/07/21 02:24:57;;;;;;;8.23;3.90;;;;;;;18.32;68.70;99402.69;5067758;28;20045;-79
2023/07/21 02:27:23;;;;;;;7.87;4.00;;;;;;;18.26;68.35;99402.03;5067294;28;20271;-78
2023/07/21 02:29:49;;;;;;;7.15;4.32;;;;;;;18.23;68.61;99394.41;5066854;28;20334;-77
2023/07/21 02:32:14;;;;;;;7.03;4.38;;;;;;;17.95;69.84;99394.69;5067078;28;20055;-79
2023/07/21 02:34:41;;;;;;;8.55;4.75;;;;;;;17.92;69.75;99395.38;5067321;28;20060;-79
2023/07/21 02:37:06;;;;;;;6.72;4.30;;;;;;;17.99;69.61;99394.84;5067798;28;20074;-78
2023/07/21 02:39:32;;;;;;;7.53;3.88;;;;;;;17.99;69.73;99394.84;5067617;28;20036;-80
2023/07/21 02:41:59;;;;;;;6.90;4.38;;;;;;;17.89;70.24;99393.25;5067446;28;20024;-78
2023/07/21 02:44:24;;;;;;;8.45;4.00;;;;;;;17.70;70.86;99391.59;5067548;28;20033;-78
2023/07/21 02:46:49;;;;;;;8.27;3.97;;;;;;;17.65;71.49;99392.56;5066938;28;20036;-78
2023/07/21 02:49:16;;;;;;;7.33;4.97;;;;;;;17.69;71.39;99392.75;5066572;28;20037;-79
2023/07/21 02:51:41;;;;;;;10.40;4.43;;;;;;;17.67;71.35;99395.00;5066805;28;20254;-79
2023/07/21 02:54:06;;;;;;;7.37;3.70;;;;;;;17.68;71.56;99391.09;5067283;28;20048;-80
2023/07/21 02:56:34;;;;;;;7.07;4.50;;;;;;;17.74;71.14;99392.56;5067670;28;20269;-78
2023/07/21 02:59:00;;;;;;;7.10;4.60;;;;;;;17.75;71.10;99394.22;5066682;28;20257;-78
2023/07/21 03:01:26;;;;;;;8.52;4.18;;;;;;;17.85;71.03;99391.13;5066493;28;20032;-79
2023/07/21 03:03:54;;;;;;;7.18;4.70;;;;;;;17.92;71.25;99395.38;5066674;28;20066;-79
2023/07/21 03:06:20;;;;;;;8.73;5.18;;;;;;;18.07;70.39;99394.88;5067021;28;20036;-78
2023/07/21 03:08:45;;;;;;;7.50;4.57;;;;;;;18.03;70.86;99396.66;5066727;28;20040;-78
2023/07/21 03:11:14;;;;;;;9.57;4.88;;;;;;;17.97;70.96;99389.69;5067059;28;20043;-79
2023/07/21 03:13:46;;;;;;;7.43;3.80;;;;;;;18.15;70.38;99382.22;5066720;28;20178;-78
2023/07/21 03:16:12;;;;;;;8.73;5.03;;;;;;;18.27;69.67;99387.09;5066453;28;20486;-79
2023/07/21 03:18:38;;;;;;;10.65;5.78;;;;;;;18.27;69.57;99376.06;5066187;28;20035;-79
2023/07/21 03:21:04;;;;;;;6.82;4.30;;;;;;;18.22;69.81;99386.47;5066437;28;20040;-72
2023/07/21 03:23:30;;;;;;;6.60;4.75;;;;;;;18.21;69.52;99377.34;5063148;28;20029;-72
2023/07/21 03:25:55;;;;;;;7.55;5.00;;;;;;;18.17;69.52;99384.66;5063089;28;20032;-72
2023/07/21 03:28:21;;;;;;;8.13;5.28;;;;;;;18.18;69.35;99391.81;5062282;28;20064;-72
2023/07/21 03:30:56;;;;;;;7.60;4.43;;;;;;;18.10;69.50;99385.16;5062675;28;20052;-73
2023/07/21 03:33:21;;;;;;;6.97;4.35;;;;;;;18.12;69.37;99387.56;5066901;28;20155;-79
2023/07/21 03:35:47;;;;;;;10.07;6.00;;;;;;;18.06;69.50;99384.16;5066884;28;20127;-79
2023/07/21 03:38:12;;;;;;;6.90;4.30;;;;;;;18.01;69.75;99387.91;5070391;28;20492;-78
2023/07/21 03:40:37;;;;;;;9.70;5.87;;;;;;;18.07;69.61;99377.50;5073061;28;20311;-78
2023/07/21 03:43:02;;;;;;;9.97;6.00;;;;;;;18.06;69.72;99381.41;5073052;28;20289;-78
2023/07/21 03:45:28;;;;;;;7.30;4.27;;;;;;;18.06;69.44;99379.44;5073463;28;20774;-79
2023/07/21 03:47:53;;;;;;;8.50;5.63;;;;;;;18.02;69.24;99383.97;5073188;28;20249;-78
2023/07/21 03:50:18;;;;;;;7.43;4.50;;;;;;;18.05;69.29;99377.03;5072236;28;20119;-79
2023/07/21 03:52:43;;;;;;;9.60;5.88;;;;;;;18.05;69.30;99388.88;5073513;28;20273;-79
2023/07/21 03:55:09;;;;;;;9.57;5.77;;;;;;;18.06;69.25;99382.19;5073605;28;20028;-78
2023/07/21 03:57:35;;;;;;;8.33;4.97;;;;;;;18.01;69.48;99387.91;5072964;28;20265;-79
2023/07/21 04:00:00;;;;;;;7.65;4.38;;;;;;;17.92;69.74;99385.13;5073171;28;20261;-78
2023/07/21 04:02:26;;;;;;;8.45;4.05;;;;;;;17.96;69.75;99385.28;5073017;28;20063;-79
2023/07/21 04:04:53;;;;;;;8.18;4.43;;;;;;;17.97;69.33;99387.75;5073326;28;20078;-79
2023/07/21 04:07:18;;;;;;;6.35;3.70;;;;;;;18.00;69.20;99382.72;5073084;28;20115;-78
2023/07/21 04:09:43;;;;;;;8.50;5.00;;;;;;;17.95;69.17;99378.16;5072568;28;20214;-79
2023/07/21 04:12:08;;;;;;;7.82;4.90;;;;;;;17.92;69.21;99385.13;5072930;28;20960;-78
2023/07/21 04:14:34;;;;;;;8.32;5.20;;;;;;;17.87;69.19;99382.53;5072918;28;20488;-78
2023/07/21 04:16:59;;;;;;;8.98;5.60;;;;;;;17.72;69.71;99392.09;5071664;28;20037;-79
2023/07/21 04:19:25;;;;;;;8.07;4.83;;;;;;;17.69;69.90;99388.03;5072973;28;20093;-78
2023/07/21 04:21:52;;;;;;;7.35;4.60;;;;;;;17.82;69.76;99380.75;5073214;28;20249;-79
2023/07/21 04:24:18;;;;;;;8.82;4.70;;;;;;;17.93;69.45;99386.75;5072718;28;20052;-78
2023/07/21 04:26:44;;;;;;;6.90;4.00;;;;;;;17.98;69.40;99388.53;5072389;28;20043;-79
2023/07/21 04:29:09;;;;;;;6.90;4.53;;;;;;;18.00;69.10;99389.00;5072013;28;20044;-79
2023/07/21 04:31:35;;;;;;;9.50;4.68;;;;;;;17.99;69.21;99386.59;5072983;28;20052;-79
2023/07/21 04:34:00;;;;;;;8.95;4.70;;;;;;;17.96;69.11;99382.53;5073030;28;20935;-79
2023/07/21 04:36:27;;;;;;;8.70;4.53;;;;;;;17.94;69.31;99387.59;5073192;28;20032;-79
2023/07/21 04:38:52;;;;;;;8.60;3.97;;;;;;;17.81;69.61;99381.88;5072584;28;20292;-78
2023/07/21 04:41:18;;;;;;;7.32;4.35;;;;;;;17.90;69.50;99383.84;5072007;28;20067;-72
2023/07/21 04:43:45;;;;;;;8.15;5.00;;;;;;;18.14;68.82;99388.06;5069213;28;20032;-72
2023/07/21 04:46:12;;;;;;;8.57;5.18;;;;;;;18.20;68.32;99384.03;5068580;28;20036;-72
2023/07/21 04:48:37;;;;;;;7.68;4.15;;;;;;;18.04;68.63;99387.22;5067194;28;20659;-72
2023/07/21 04:51:03;;;;;;;6.32;3.63;;;;;;;17.97;69.06;99384.16;5064746;28;20048;-72
2023/07/21 04:53:29;;;;;;;5.95;4.10;;;;;;;17.99;69.15;99378.31;5065713;28;20036;-72
2023/07/21 04:55:56;;;;;;;6.50;4.32;;;;;;;18.05;68.81;99380.59;5066553;28;20032;-72
2023/07/21 04:58:21;;;;;;;6.95;4.57;;;;;;;18.07;68.83;99386.59;5065287;28;20037;-73
2023/07/21 05:00:46;;;;;;;10.20;4.82;;;;;;;18.09;68.80;99387.09;5064607;28;20036;-72
2023/07/21 05:03:12;;;;;;;8.60;4.40;;;;;;;18.22;68.63;99381.75;5065429;28;20028;-72
2023/07/21 05:05:38;;;;;;;14.68;5.90;;;;;;;18.06;68.72;99382.19;5065474;28;20697;-72
2023/07/21 05:08:04;;;;;;;7.55;4.80;;;;;;;17.98;68.85;99388.53;5065410;28;20035;-73
2023/07/21 05:10:30;;;;;;;9.63;5.43;;;;;;;18.05;69.34;99388.88;5065662;28;20033;-71
2023/07/21 05:12:56;;;;;;;9.82;6.00;;;;;;;18.19;68.90;99383.22;5065597;28;20073;-72
2023/07/21 05:15:21;;;;;;;9.07;6.27;;;;;;;18.30;68.66;99389.22;5065082;28;20075;-73
2023/07/21 05:17:46;;;;;;;12.13;6.82;;;;;;;18.19;69.10;99394.25;5065294;28;20250;-73
2023/07/21 05:20:12;;;;;;;9.87;5.93;;;;;;;18.18;69.35;99400.09;5064890;28;20047;-73
2023/07/21 05:22:37;;;;;;;14.23;8.57;;;;;;;18.14;69.48;99396.34;5065013;28;20245;-72
2023/07/21 05:25:07;;;;;;;12.15;7.30;;;;;;;18.17;69.52;99399.28;5065348;28;20106;-72
2023/07/21 05:27:33;;;;;;;12.93;7.45;;;;;;;18.17;69.60;99407.56;5065042;28;20036;-72
2023/07/21 05:30:01;;;;;;;11.93;7.33;;;;;;;18.16;69.71;99399.56;5064612;28;20110;-72
2023/07/21 05:32:26;;;;;;;9.95;6.82;;;;;;;18.13;69.79;99390.00;5065304;28;20342;-73
2023/07/21 05:34:51;;;;;;;10.40;6.30;;;;;;;18.09;69.84;99389.84;5065898;28;20111;-72
2023/07/21 05:37:17;;;;;;;21.38;7.57;;;;;;;18.11;69.94;99391.44;5065028;28;20762;-72
2023/07/21 05:39:42;;;;;;;11.15;6.43;;;;;;;18.14;69.74;99390.81;5065018;28;20681;-72
2023/07/21 05:42:08;;;;;;;12.77;6.00;;;;;;;18.18;69.34;99389.06;5066949;28;20500;-78
2023/07/21 05:44:34;;;;;;;10.43;6.63;;;;;;;18.14;69.13;99383.34;5068163;28;20509;-79
2023/07/21 05:47:00;;;;;;;12.73;6.65;;;;;;;18.25;69.18;99380.28;5068450;28;20060;-78
2023/07/21 05:49:25;;;;;;;9.63;6.10;;;;;;;18.32;69.11;99372.31;5067458;28;20047;-79
2023/07/21 05:51:52;;;;;;;10.90;6.32;;;;;;;18.41;68.81;99378.63;5067228;28;20037;-72
2023/07/21 05:54:18;;;;;;;11.95;6.05;;;;;;;18.38;68.41;99378.47;5064340;28;20059;-72
2023/07/21 05:56:43;;;;;;;12.75;7.95;;;;;;;18.36;68.71;99380.75;5064198;28;20090;-72
2023/07/21 05:59:08;;;;;;;10.83;6.70;;;;;;;18.43;68.70;99373.59;5063927;28;20032;-72
2023/07/21 06:01:36;;;;;;;8.05;5.72;;;;;;;18.40;68.93;99388.06;5063711;28;20746;-72
2023/07/21 06:04:02;;;;;;;13.15;7.35;;;;;;;18.41;69.01;99388.84;5064042;28;20029;-72
2023/07/21 06:06:29;;;;;;;10.73;5.80;;;;;;;18.48;69.00;99378.16;5064074;28;20032;-72
2023/07/21 06:08:54;;;;;;;10.15;6.35;;;;;;;18.43;69.07;99381.88;5063956;28;20536;-72
2023/07/21 06:11:19;;;;;;;10.90;6.27;;;;;;;18.21;70.06;99388.41;5064005;28;20032;-72
2023/07/21 06:13:45;;;;;;;9.35;5.97;;;;;;;18.21;70.33;99391.16;5064228;28;20334;-71
2023/07/21 06:16:10;;;;;;;12.07;6.53;;;;;;;18.30;70.52;99380.94;5062863;28;20502;-72
2023/07/21 06:18:35;;;;;;;9.20;6.53;;;;;;;18.42;70.55;99390.50;5063657;28;20260;-72
2023/07/21 06:21:02;;;;;;;10.90;7.20;;;;;;;18.43;69.85;99381.06;5064324;28;20032;-73
2023/07/21 06:23:28;;;;;;;16.90;8.27;;;;;;;18.49;70.28;99382.50;5062319;28;20277;-72
2023/07/21 06:25:54;;;;;;;13.07;7.40;;;;;;;18.52;70.02;99379.09;5063927;28;20594;-72
2023/07/21 06:28:19;;;;;;;12.65;7.35;;;;;;;18.63;69.91;99384.28;5063718;28;20242;-71
2023/07/21 06:30:45;;;;;;;15.00;9.05;;;;;;;18.42;69.73;99380.28;5062882;28;20056;-74
2023/07/21 06:33:10;;;;;;;13.23;8.85;;;;;;;18.53;69.70;99391.75;5063337;28;20463;-72
2023/07/21 06:35:35;;;;;;;13.67;8.93;;;;;;;18.45;69.46;99384.31;5062853;28;20462;-71
2023/07/21 06:38:01;;;;;;;15.80;9.60;;;;;;;18.41;69.95;99384.16;5063048;28;20258;-74
2023/07/21 06:40:26;;;;;;;12.60;8.68;;;;;;;18.65;69.46;99387.53;5062787;28;20720;-73
2023/07/21 06:42:51;;;;;;;12.57;8.17;;;;;;;18.76;69.17;99382.44;5062590;28;20044;-72
2023/07/21 06:45:17;;;;;;;14.43;8.13;;;;;;;18.81;68.75;99381.47;5063144;28;20260;-72
2023/07/21 06:47:42;;;;;;;12.95;9.10;;;;;;;18.92;68.06;99385.47;5063569;28;20047;-72
2023/07/21 06:50:08;;;;;;;13.93;8.75;;;;;;;19.02;67.69;99374.06;5062915;28;20445;-71
2023/07/21 06:52:34;;;;;;;17.20;9.45;;;;;;;19.07;67.64;99377.78;5063259;28;20042;-72
2023/07/21 06:55:00;;;;;;;14.80;9.38;;;;;;;19.07;67.50;99373.06;5063072;28;20040;-72
2023/07/21 06:57:26;;;;;;;15.43;9.95;;;;;;;18.95;67.94;99379.31;5062864;28;20028;-72
2023/07/21 06:59:51;;;;;;;16.58;10.00;;;;;;;18.74;68.12;99377.25;5062446;28;20496;-74
2023/07/21 07:02:18;;;;;;;14.60;9.25;;;;;;;18.95;68.32;99378.47;5062919;28;20507;-73
2023/07/21 07:04:43;;;;;;;15.70;10.02;;;;;;;19.19;67.97;99375.16;5062776;28;20158;-72
2023/07/21 07:07:08;;;;;;;15.35;9.30;;;;;;;19.25;66.93;99376.59;5062882;28;20159;-72
2023/07/21 07:09:34;;;;;;;20.35;9.13;;;;;;;19.51;67.31;99371.22;5063091;28;20421;-72
2023/07/21 07:11:59;;;;;;;16.50;11.00;;;;;;;19.53;66.60;99372.50;5062342;28;20032;-72
2023/07/21 07:14:25;;;;;;;14.68;10.15;;;;;;;19.59;66.17;99370.34;5062781;28;20429;-71
2023/07/21 07:16:50;;;;;;;13.88;8.95;;;;;;;19.67;66.04;99377.00;5063319;28;20050;-73
2023/07/21 07:19:17;;;;;;;12.60;8.37;;;;;;;19.76;65.09;99368.63;5062714;28;20478;-73
2023/07/21 07:21:42;;;;;;;14.27;9.18;;;;;;;19.87;64.03;99366.28;5062750;28;20292;-72
2023/07/21 07:24:09;;;;;;;15.02;9.15;;;;;;;19.67;64.10;99369.50;5062522;28;20389;-72
2023/07/21 07:26:34;;;;;;;15.80;9.02;;;;;;;19.47;64.78;99371.91;5062398;28;20392;-71
2023/07/21 07:29:00;;;;;;;12.53;8.30;;;;;;;19.49;65.09;99374.31;5063100;28;20113;-72
2023/07/21 07:31:25;;;;;;;14.77;8.33;;;;;;;19.60;64.38;99363.69;5062217;28;20277;-71
2023/07/21 07:33:50;;;;;;;12.07;7.93;;;;;;;19.51;65.02;99371.22;5063120;28;20269;-72
2023/07/21 07:36:16;;;;;;;9.97;7.10;;;;;;;19.60;64.22;99378.34;5062211;28;20039;-72
2023/07/21 07:38:41;;;;;;;12.25;7.10;;;;;;;19.68;63.81;99375.84;5062532;28;20353;-72
2023/07/21 07:41:09;;;;;;;11.50;6.60;;;;;;;19.75;63.33;99375.31;5062822;28;20064;-73
2023/07/21 07:43:35;;;;;;;10.25;7.10;;;;;;;19.67;63.89;99374.22;5061590;28;20281;-72
2023/07/21 07:46:02;;;;;;;11.32;7.47;;;;;;;19.72;64.09;99376.78;5063013;28;20954;-73
2023/07/21 07:48:27;;;;;;;11.80;7.03;;;;;;;19.66;64.24;99376.19;5061984;28;20098;-73
2023/07/21 07:50:53;;;;;;;16.23;7.05;;;;;;;19.74;63.66;99385.56;5062928;28;20756;-72
2023/07/21 07:53:19;;;;;;;9.82;6.30;;;;;;;19.88;63.21;99377.00;5062487;28;20033;-72
2023/07/21 07:55:45;;;;;;;15.95;7.45;;;;;;;19.73;63.36;99372.06;5062408;28;20528;-72
2023/07/21 07:58:11;;;;;;;10.18;6.90;;;;;;;19.68;63.35;99370.31;5062210;28;20041;-73
2023/07/21 08:00:38;;;;;;;11.18;6.60;;;;;;;19.81;63.24;99372.00;5061585;28;20049;-71
2023/07/21 08:03:05;;;;;;;9.70;5.65;;;;;;;19.63;63.20;99368.53;5065633;28;20117;-78
2023/07/21 08:05:38;;;;;;;9.43;5.13;;;;;;;19.81;63.61;99374.75;5066379;28;20179;-80
2023/07/21 08:08:04;;;;;;;8.50;5.78;;;;;;;19.74;62.97;99368.97;5065529;28;20079;-80
2023/07/21 08:10:30;;;;;;;11.05;6.78;;;;;;;19.77;62.56;99370.25;5065696;28;20135;-79
2023/07/21 08:12:56;;;;;;;8.60;5.72;;;;;;;19.93;62.19;99362.94;5062930;28;20545;-73
2023/07/21 08:15:23;;;;;;;9.07;5.15;;;;;;;20.00;61.47;99365.16;5061956;28;20121;-71
2023/07/21 08:17:52;;;;;;;14.05;5.75;;;;;;;20.25;61.91;99365.31;5061745;28;20070;-72
2023/07/21 08:20:18;;;;;;;7.78;4.70;;;;;;;20.53;61.20;99361.13;5060906;28;20482;-72
2023/07/21 08:22:45;;;;;;;6.13;3.50;;;;;;;20.57;60.46;99361.22;5060471;28;20428;-72
2023/07/21 08:25:10;;;;;;;8.23;4.05;;;;;;;20.81;59.56;99366.00;5065415;28;20039;-73
2023/07/21 08:27:35;;;;;;;7.32;3.65;;;;;;;20.61;59.01;99365.75;5065530;28;20036;-72
2023/07/21 08:30:01;;;;;;;9.15;4.95;;;;;;;20.51;59.54;99367.00;5065521;28;20036;-72
2023/07/21 08:32:27;;;;;;;5.18;3.25;;;;;;;20.63;59.59;99370.94;5064988;28;20071;-73
2023/07/21 08:34:52;;;;;;;6.28;3.65;;;;;;;20.88;59.22;99369.03;5066270;28;20032;-73
2023/07/21 08:37:17;;;;;;;12.23;3.55;;;;;;;20.78;58.15;99363.94;5065392;28;20115;-72
2023/07/21 08:39:43;;;;;;;6.67;3.27;;;;;;;20.88;58.22;99360.72;5065596;28;20036;-72
2023/07/21 08:42:12;;;;;;;5.65;3.83;;;;;;;20.45;56.69;99359.25;5065707;28;21463;-71
2023/07/21 08:44:38;;;;;;;5.68;3.63;;;;;;;20.64;57.96;99364.25;5065103;28;20089;-72
2023/07/21 08:47:04;;;;;;;6.93;4.50;;;;;;;20.77;57.39;99371.44;5065865;28;20052;-72
2023/07/21 08:49:29;;;;;;;7.22;4.85;;;;;;;20.79;57.17;99361.97;5065012;28;20079;-72
2023/07/21 08:51:55;;;;;;;11.88;4.18;;;;;;;20.89;57.08;99361.50;5065255;28;20668;-72
2023/07/21 08:54:20;;;;;;;6.75;4.25;;;;;;;21.02;57.24;99364.31;5064713;28;20047;-72
2023/07/21 08:56:45;;;;;;;8.67;3.97;;;;;;;21.17;55.97;99368.38;5065510;28;20028;-72
2023/07/21 08:59:10;;;;;;;6.27;3.40;;;;;;;21.23;56.13;99353.91;5065206;28;20257;-72
2023/07/21 09:01:36;;;;;;;5.28;3.45;;;;;;;21.19;56.09;99366.06;5065300;28;20308;-72
2023/07/21 09:04:01;;;;;;;6.47;3.80;;;;;;;21.25;55.53;99361.09;5065480;28;20036;-73
2023/07/21 09:06:26;;;;;;;6.75;3.00;;;;;;;21.27;55.59;99356.81;5064825;28;20275;-72
2023/07/21 09:08:53;;;;;;;7.10;4.22;;;;;;;21.33;55.48;99349.91;5064856;28;20029;-72
2023/07/21 09:11:18;;;;;;;6.80;3.38;;;;;;;21.34;54.34;99345.13;5065269;28;20034;-72
2023/07/21 09:13:53;;;;;;;6.57;3.10;;;;;;;21.45;54.37;99345.47;5065046;28;20033;-72
2023/07/21 09:16:19;;;;;;;7.45;4.05;;;;;;;21.11;53.92;99362.25;5064519;28;20260;-72
2023/07/21 09:18:46;;;;;;;6.07;3.55;;;;;;;20.94;53.73;99350.22;5064743;28;20383;-72
2023/07/21 09:21:23;;;;;;;8.73;4.57;;;;;;;20.90;54.26;99354.00;5063982;28;20462;-72
2023/07/21 09:23:49;;;;;;;8.05;3.85;;;;;;;21.10;54.66;99355.91;5064928;28;20051;-72
2023/07/21 09:26:22;;;;;;;6.30;3.63;;;;;;;21.38;54.28;99356.34;5064516;28;20074;-72
2023/07/21 09:28:49;;;;;;;5.68;3.78;;;;;;;21.49;53.76;99351.94;5063769;28;20483;-72
2023/07/21 09:31:14;;;;;;;13.77;5.57;;;;;;;21.63;53.46;99353.53;5064506;28;20086;-78
2023/07/21 09:33:42;;;;;;;6.28;3.65;;;;;;;21.60;53.82;99360.56;5066865;28;20032;-79
2023/07/21 09:36:10;;;;;;;7.75;4.22;;;;;;;21.53;53.05;99354.81;5066192;28;20063;-77
2023/07/21 09:38:36;;;;;;;6.60;4.32;;;;;;;21.44;52.24;99355.75;5066118;28;20047;-78
2023/07/21 09:41:10;;;;;;;10.30;5.90;;;;;;;21.41;52.47;99350.09;5066684;28;20032;-78
2023/07/21 09:43:36;;;;;;;7.60;4.38;;;;;;;21.52;52.99;99351.22;5066655;28;20032;-79
2023/07/21 09:46:03;;;;;;;6.57;4.15;;;;;;;21.62;52.48;99354.69;5066984;28;20111;-78
2023/07/21 09:48:30;;;;;;;8.10;4.78;;;;;;;21.45;52.81;99356.56;5066756;28;20451;-77
2023/07/21 09:50:58;;;;;;;9.77;4.90;;;;;;;21.54;52.54;99350.91;5067475;28;20032;-78
2023/07/21 09:53:30;;;;;;;8.27;5.45;;;;;;;21.74;52.52;99346.34;5067363;28;20063;-78
2023/07/21 09:55:59;;;;;;;8.20;5.10;;;;;;;21.72;52.56;99358.94;5067044;28;20037;-78
2023/07/21 09:58:26;;;;;;;6.13;3.92;;;;;;;21.70;53.14;99348.22;5066125;28;20040;-78
2023/07/21 10:00:53;;;;;;;8.45;5.25;;;;;;;21.53;52.40;99355.63;5066342;28;20040;-78
2023/07/21 10:03:21;;;;;;;8.25;4.70;;;;;;;21.63;52.14;99354.34;5067151;28;20040;-80
2023/07/21 10:05:47;;;;;;;9.02;6.47;;;;;;;21.38;52.73;99356.34;5067027;28;20032;-78
2023/07/21 10:08:13;;;;;;;13.07;6.50;;;;;;;21.25;53.30;99364.69;5067043;28;20034;-78
2023/07/21 10:10:39;;;;;;;8.25;5.82;;;;;;;21.30;53.22;99356.13;5066552;28;20020;-77
2023/07/21 10:13:07;;;;;;;14.63;5.85;;;;;;;21.50;53.00;99350.00;5066655;28;20044;-78
2023/07/21 10:15:32;;;;;;;9.93;6.28;;;;;;;21.74;52.36;99357.44;5066428;28;20086;-77
2023/07/21 10:18:00;;;;;;;8.77;5.45;;;;;;;21.90;52.25;99348.41;5066200;28;20044;-78
2023/07/21 10:20:45;;;;;;;8.13;5.13;;;;;;;21.68;50.83;99347.75;5065583;28;20729;-78
2023/07/21 10:23:13;;;;;;;9.48;6.70;;;;;;;21.69;51.15;99341.03;5066432;28;20025;-78
2023/07/21 10:25:47;;;;;;;12.98;7.53;;;;;;;21.85;51.44;99354.19;5066733;28;20111;-78
2023/07/21 10:28:15;;;;;;;10.15;7.47;;;;;;;21.74;51.29;99345.53;5066256;28;20781;-78
2023/07/21 10:30:41;;;;;;;8.63;6.28;;;;;;;21.76;51.88;99348.75;5065656;28;20806;-80
2023/07/21 10:33:16;;;;;;;8.60;5.03;;;;;;;22.10;51.58;99356.88;5066102;28;20044;-78
2023/07/21 10:35:41;;;;;;;6.95;4.93;;;;;;;22.24;51.19;99345.34;5066520;28;20036;-78
2023/07/21 10:38:13;;;;;;;9.98;5.53;;;;;;;22.37;50.63;99352.44;5066368;28;20729;-78
2023/07/21 10:40:40;;;;;;;8.98;5.65;;;;;;;22.36;50.08;99341.72;5065783;28;20036;-77
2023/07/21 10:43:05;;;;;;;9.70;6.00;;;;;;;22.32;49.33;99341.63;5065879;28;20032;-78
2023/07/21 10:45:30;;;;;;;7.90;5.53;;;;;;;22.12;50.36;99347.03;5066517;28;20657;-78
2023/07/21 10:47:56;;;;;;;9.80;7.07;;;;;;;21.95;49.45;99342.59;5064419;28;20362;-79
2023/07/21 10:50:22;;;;;;;9.37;6.97;;;;;;;22.11;49.76;99347.41;5065420;28;20032;-77
2023/07/21 10:52:47;;;;;;;7.03;4.72;;;;;;;22.27;49.30;99337.13;5065542;28;20770;-78
2023/07/21 10:55:19;;;;;;;8.55;5.82;;;;;;;22.13;48.87;99350.63;5065796;28;20082;-78
2023/07/21 10:57:45;;;;;;;50.65;47.30;;;;;;;22.08;48.23;99345.31;5065596;28;20078;-78
2023/07/21 11:00:11;;;;;;;8.98;6.22;;;;;;;22.11;48.21;99339.06;5065190;28;20577;-79
2023/07/21 11:02:39;;;;;;;27.10;24.83;;;;;;;21.96;48.54;99338.66;5065368;28;20493;-78
2023/07/21 11:05:05;;;;;;;14.80;13.43;;;;;;;21.88;49.22;99334.06;5065551;28;20040;-78
2023/07/21 11:07:30;;;;;;;7.57;5.20;;;;;;;21.89;49.33;99330.13;5064768;28;20086;-78
2023/07/21 11:10:00;;;;;;;7.13;5.20;;;;;;;22.00;49.46;99333.22;5063518;28;20035;-79
2023/07/21 11:12:26;;;;;;;13.05;11.95;;;;;;;21.95;48.67;99334.25;5065096;28;20265;-79
2023/07/21 11:14:51;;;;;;;5.53;4.90;;;;;;;21.96;49.24;99335.91;5065079;28;20086;-78
2023/07/21 11:17:16;;;;;;;7.82;3.95;;;;;;;22.31;49.70;99330.88;5065340;28;20356;-78
2023/07/21 11:19:42;;;;;;;43.67;40.77;;;;;;;22.42;48.42;99328.38;5065493;28;20041;-79
2023/07/21 11:22:09;;;;;;;7.55;6.80;;;;;;;22.43;47.56;99328.03;5065433;28;20269;-78
2023/07/21 11:24:34;;;;;;;21.83;19.33;;;;;;;22.41;47.14;99324.00;5065594;28;20048;-78
2023/07/21 11:27:05;;;;;;;4.45;3.13;;;;;;;22.67;47.57;99320.72;5066104;28;20087;-78